Latest Coastal Weather Observations for Norah Head

IDN60701

Issued at 10:25 pm EST Thursday 17 April 2014 (issued every 10 minutes, with the page automatically refreshed every 10 minutes)

About coastal observations | Map of coastal stations | Coastal observations for NSW | Marine services | Other Formats
Station Details ID: 061366 Name: NORAH HEAD AWS Lat: -33.28 Lon: 151.58 Height: 18.8 m
Data from the previous 72 hours. | See also: Recent months at Norah Head
Date/Time
EST
Temp

°C
Wind Pressure Rain
since 9am
mm
Weather Cloud Vis
km
Sea
Height
m
Swell
Dir
 
Speed
knots
Gust
knots
hPa Trend Height
m
Period
s
Dir
17/10:00pm 17.6 W 5 9 1018.7 - 0.0 - - - - - - -
17/09:30pm 20.3 S 10 14 1018.9 - 0.0 - - - - - - -
17/09:00pm 20.0 S 10 12 1018.6 - 0.0 - - - - - - -
17/08:30pm 19.7 SSE 12 15 1018.7 - 0.0 - - - - - - -
17/08:00pm 20.1 S 9 13 1018.4 - 0.0 - - - - - - -
17/07:30pm 20.2 S 13 16 1018.4 - 0.0 - - - - - - -
17/07:00pm 20.0 S 17 20 1018.2 - 0.0 - - - - - - -
17/06:30pm 19.9 S 15 19 1018.2 - 0.0 - - - - - - -
17/06:00pm 20.0 S 14 18 1017.7 - 0.0 - - - - - - -
17/05:30pm 19.8 S 15 18 1017.7 - 0.0 - - - - - - -
17/05:00pm 19.6 SSE 14 17 1017.5 - 0.0 - - - - - - -
17/04:30pm 20.1 S 16 20 1017.4 - 0.0 - - - - - - -
17/04:00pm 20.1 S 13 17 1017.4 - 0.0 - - - - - - -
17/03:30pm 20.6 S 14 17 1017.4 - 0.0 - - - - - - -
17/03:00pm 20.2 S 18 21 1017.2 - 0.0 - - - - - - -
17/02:30pm 20.3 S 20 24 1017.5 - 0.0 - - - - - - -
17/02:00pm 21.1 S 17 22 1017.4 - 0.0 - - - - - - -
17/01:30pm 21.0 S 18 22 1017.6 - 0.0 - - - - - - -
17/01:00pm 20.5 S 18 22 1017.7 - 0.0 - - - - - - -
17/12:30pm 20.7 S 15 20 1018.2 - 0.0 - - - - - - -
17/12:00pm 20.3 SSW 11 16 1018.7 - 0.0 - - - - - - -
17/11:30am 20.5 SSW 14 21 1019.0 - 0.0 - - - - - - -
17/11:00am 20.5 SSW 13 18 1019.0 - 0.0 - - - - - - -
17/10:30am 19.9 SSW 10 13 1019.3 - 0.0 - - - - - - -
17/10:00am 19.7 SSW 6 10 1019.2 - 0.0 - - - - - - -
17/09:30am 19.3 SW 6 11 1019.4 - 0.0 - - - - - - -
17/09:00am 18.6 WSW 7 11 1019.2 - 1.6 - - - - - - -
17/08:30am 17.8 WSW 6 11 1019.1 - 1.6 - - - - - - -
17/08:00am 16.6 W 7 11 1018.7 - 1.6 - - - - - - -
17/07:30am 15.8 W 6 11 1018.7 - 1.6 - - - - - - -
17/07:00am 14.9 W 6 10 1018.3 - 1.6 - - - - - - -
17/06:30am 14.9 W 6 11 1018.1 - 1.6 - - - - - - -
17/06:00am 14.6 W 6 10 1017.7 - 1.6 - - - - - - -
17/05:30am 14.8 W 6 9 1017.7 - 1.6 - - - - - - -
17/05:00am 14.8 W 7 10 1017.6 - 1.6 - - - - - - -
17/04:30am 14.7 W 7 12 1017.3 - 1.6 - - - - - - -
17/04:00am 14.8 W 7 11 1017.1 - 1.6 - - - - - - -
17/03:30am 15.1 W 7 11 1017.1 - 1.6 - - - - - - -
17/03:00am 15.2 W 7 11 1016.9 - 1.6 - - - - - - -
17/02:30am 15.2 W 8 11 1017.0 - 1.6 - - - - - - -
17/02:00am 15.2 W 7 10 1017.3 - 1.6 - - - - - - -
17/01:30am 15.3 W 7 11 1017.6 - 1.6 - - - - - - -
17/01:00am 15.4 W 7 12 1017.8 - 1.6 - - - - - - -
17/12:30am 15.6 W 7 10 1018.2 - 1.6 - - - - - - -
17/12:00am 15.8 W 8 11 1018.0 - 1.6 - - - - - - -
 
Date/Time
EST
Temp

°C
Wind Pressure Rain
since 9am
mm
Weather Cloud Vis
km
Sea
Height
m
Swell
Dir
 
Speed
knots
Gust
knots
hPa Trend Height
m
Period
s
Dir
16/11:30pm 15.8 W 8 10 1018.1 - 1.6 - - - - - - -
16/11:00pm 15.9 W 7 9 1018.1 - 1.6 - - - - - - -
16/10:30pm 16.2 W 6 9 1018.3 - 1.6 - - - - - - -
16/10:00pm 16.6 W 6 8 1018.4 - 1.6 - - - - - - -
16/09:30pm 18.1 SW 8 13 1018.7 - 1.2 - - - - - - -
16/09:00pm 17.5 W 5 8 1018.5 - 0.0 - - - - - - -
16/08:30pm 19.1 WSW 5 9 1018.3 - 0.0 - - - - - - -
16/08:00pm 20.4 S 14 18 1017.9 - 0.0 - - - - - - -
16/07:30pm 20.0 S 15 20 1017.8 - 0.0 - - - - - - -
16/07:00pm 20.0 S 16 22 1017.5 - 0.0 - - - - - - -
16/06:30pm 20.0 S 15 21 1017.7 - 0.0 - - - - - - -
16/06:00pm 19.8 S 20 26 1017.0 - 0.0 - - - - - - -
16/05:30pm 20.2 S 17 24 1017.0 - 0.0 - - - - - - -
16/05:00pm 20.1 S 16 22 1016.9 - 0.0 - - - - - - -
16/04:30pm 20.4 S 15 23 1016.8 - 0.0 - - - - - - -
16/04:00pm 20.4 S 16 21 1016.6 - 0.0 - - - - - - -
16/03:30pm 20.4 S 17 21 1016.9 - 0.0 - - - - - - -
16/03:00pm 20.3 S 19 23 1017.0 - 0.0 - - - - - - -
16/02:30pm 20.6 S 17 23 1017.0 - 0.0 - - - - - - -
16/02:00pm 20.6 S 17 22 1017.0 - 0.0 - - - - - - -
16/01:30pm 20.6 S 15 20 1017.1 - 0.0 - - - - - - -
16/01:00pm 20.7 SSW 11 16 1017.3 - 0.0 - - - - - - -
16/12:30pm 20.4 SSW 11 17 1017.7 - 0.0 - - - - - - -
16/12:00pm 20.4 SSW 9 15 1018.2 - 0.0 - - - - - - -
16/11:30am 19.1 SW 5 10 1018.7 - 0.0 - - - - - - -
16/11:00am 18.6 SSW 12 16 1018.8 - 0.0 - - - - - - -
16/10:30am 18.8 SSW 14 20 1018.9 - 0.0 - - - - - - -
16/10:00am 19.1 SSW 15 19 1018.9 - 0.0 - - - - - - -
16/09:30am 18.8 SSW 9 15 1019.1 - 0.0 - - - - - - -
16/09:00am 18.4 SW 7 13 1018.9 - 21.8 - - - - - - -
16/08:30am 17.3 SW 7 11 1018.9 - 21.8 - - - - - - -
16/08:00am 16.6 SW 8 14 1018.9 - 21.8 - - - - - - -
16/07:30am 15.9 WSW 8 12 1018.6 - 21.8 - - - - - - -
16/07:00am 15.8 WSW 7 10 1018.4 - 21.8 - - - - - - -
16/06:30am 17.0 SW 10 17 1018.0 - 21.6 - - - - - - -
16/06:00am 16.1 SW 9 13 1017.7 - 21.6 - - - - - - -
16/05:30am 15.6 WSW 7 11 1017.7 - 21.6 - - - - - - -
16/05:00am 15.5 WNW 2 5 1017.7 - 21.6 - - - - - - -
16/04:30am 16.1 SW 9 14 1017.6 - 16.2 - - - - - - -
16/04:00am 16.5 SW 8 13 1017.4 - 15.8 - - - - - - -
16/03:30am 16.9 SW 9 15 1017.4 - 15.6 - - - - - - -
16/03:00am 16.8 SW 8 13 1017.2 - 15.2 - - - - - - -
16/02:30am 16.4 SW 9 13 1017.4 - 15.2 - - - - - - -
16/02:00am 16.5 SW 8 12 1017.5 - 15.2 - - - - - - -
16/01:30am 16.5 WSW 9 14 1018.0 - 15.2 - - - - - - -
16/01:00am 16.6 SW 8 12 1018.1 - 15.0 - - - - - - -
16/12:30am 16.4 WSW 7 11 1018.5 - 15.0 - - - - - - -
16/12:00am 17.0 SW 8 17 1018.6 - 11.6 Rain - - - - - -
 
Date/Time
EST
Temp

°C
Wind Pressure Rain
since 9am
mm
Weather Cloud Vis
km
Sea
Height
m
Swell
Dir
 
Speed
knots
Gust
knots
hPa Trend Height
m
Period
s
Dir
15/11:30pm 17.9 SSE 18 23 1018.5 - 11.2 - - - - - - -
15/11:17pm 17.3 SSE 15 27 1018.8 - 10.8 - - - - - - -
15/11:00pm 18.2 SSE 14 17 1018.9 - 10.6 - - - - - - -
15/10:30pm 17.6 SSE 21 26 1019.0 - 10.4 - - - - - - -
15/10:00pm 18.2 S 24 29 1018.9 - 10.0 - - - - - - -
15/09:49pm 17.8 S 22 25 1019.1 - 9.6 - - - - - - -
15/09:30pm 17.1 WSW 10 13 1019.3 - 7.2 - - - - - - -
15/09:00pm 16.6 WSW 6 11 1019.2 - 7.2 Rain - - - - - -
15/08:30pm 17.1 SW 9 16 1019.1 - 4.4 - - - - - - -
15/08:00pm 17.5 SW 7 11 1019.1 - 3.0 - - - - - - -
15/07:30pm 17.8 WSW 8 12 1019.1 - 3.0 - - - - - - -
15/07:00pm 18.4 S 13 19 1018.5 - 3.0 - - - - - - -
15/06:30pm 18.4 S 20 25 1018.5 - 3.0 - - - - - - -
15/06:00pm 18.7 S 22 30 1018.0 - 3.0 - - - - - - -
15/05:30pm 19.1 S 24 32 1017.8 - 3.0 - - - - - - -
15/05:19pm 18.6 S 22 33 1017.7 - 3.0 - - - - - - -
15/05:15pm 18.7 S 19 28 1017.9 - 3.0 - - - - - - -
15/05:00pm 17.3 SW 11 17 1018.0 - 3.0 - - - - - - -
15/04:44pm 19.5 SSW 15 25 1017.7 - 2.8 - - - - - - -
15/04:30pm 18.6 SSW 15 23 1017.9 - 2.8 - - - - - - -
15/04:00pm 18.8 S 16 23 1017.8 - 2.8 - - - - - - -
15/03:30pm 18.8 S 21 29 1017.8 - 2.8 - - - - - - -
15/03:00pm 18.4 S 19 26 1018.0 - 2.8 Recent precip. - - - - - -
15/02:44pm 18.0 S 18 23 1018.1 - 2.8 - - - - - - -
15/02:30pm 16.7 SSW 4 7 1018.4 - 2.8 - - - - - - -
15/02:00pm 17.1 S 17 27 1018.4 - 0.8 - - - - - - -
15/01:30pm 18.3 S 15 17 1018.2 - 0.2 - - - - - - -
15/01:11pm 19.0 S 17 19 1018.3 - 0.2 - - - - - - -
15/01:00pm 18.8 S 5 9 1018.5 - 0.2 - - - - - - -
15/12:30pm 19.0 S 11 15 1018.8 - 0.2 - - - - - - -
15/12:00pm 18.4 SW 5 8 1019.2 - 0.2 - - - - - - -
15/11:30am 17.9 S 6 11 1019.8 - 0.2 - - - - - - -
15/11:00am 17.4 S 10 14 1020.2 - 0.2 - - - - - - -
15/10:30am 18.1 SSW 11 15 1020.4 - 0.0 - - - - - - -
15/10:00am 18.4 SSW 9 14 1020.2 - 0.0 - - - - - - -
15/09:30am 18.1 WSW 4 9 1020.1 - 0.0 - - - - - - -
15/09:00am 17.0 WSW 4 9 1020.2 - 27.2 Recent precip. - - - - - -
15/08:30am 16.2 W 2 4 1020.3 - 27.2 - - - - - - -
15/08:00am 16.0 SW 5 9 1020.3 - 25.6 - - - - - - -
15/07:30am 16.1 WSW 7 10 1019.7 - 23.6 - - - - - - -
15/07:00am 15.9 WSW 8 12 1019.4 - 23.6 - - - - - - -
15/06:30am 15.5 WSW 8 13 1019.4 - 23.6 - - - - - - -
15/06:00am 14.8 WSW 7 11 1019.2 - 23.6 - - - - - - -
15/05:30am 14.8 W 6 8 1019.1 - 23.6 - - - - - - -
15/05:00am 14.9 W 6 9 1018.9 - 23.6 - - - - - - -
15/04:30am 15.1 W 6 11 1019.0 - 23.6 - - - - - - -
15/04:00am 15.6 W 6 9 1018.8 - 23.6 - - - - - - -
15/03:30am 16.2 WSW 5 8 1019.0 - 23.4 - - - - - - -
15/03:00am 15.5 W 7 10 1019.0 - 23.4 - - - - - - -
15/02:30am 15.4 W 5 8 1019.2 - 23.4 - - - - - - -
15/02:00am 15.4 W 5 8 1019.3 - 23.4 - - - - - - -
15/01:30am 15.6 W 6 9 1019.6 - 23.4 - - - - - - -
15/01:00am 16.1 W 4 7 1019.7 - 23.2 - - - - - - -
15/12:30am 17.2 S 7 10 1019.9 - 23.2 - - - - - - -
15/12:00am 16.0 WSW 6 9 1020.0 - 23.2 Recent precip. - - - - - -
 
Date/Time
EST
Temp

°C
Wind Pressure Rain
since 9am
mm
Weather Cloud Vis
km
Sea
Height
m
Swell
Dir
 
Speed
knots
Gust
knots
hPa Trend Height
m
Period
s
Dir
14/11:30pm 16.0 W 5 8 1020.2 - 23.0 - - - - - - -
14/11:00pm 16.3 W 5 7 1020.1 - 23.0 - - - - - - -
14/10:30pm 16.7 WNW 4 7 1020.5 - 23.0 - - - - - - -

Other Formats:

Comma delimited format used in spreadsheet applications
http://www.bom.gov.au/fwo/IDN60701/IDN60701.95770.axf

JavaScript Object Notation format (JSON) in row-major order
http://www.bom.gov.au/fwo/IDN60701/IDN60701.95770.json